Como, North Carolina
Current Conditions -  °F | °C
As of 11:35 AM on Saturday 22 Nov 2014 (Local Time) from KFKN Reporting Station
Clear Clear  
Wind Chill: 42°   Ceiling: Unl
Heat Index: 46°   Visibility: 10mi
Dew Point: 18°   Wind: 9mph
Humidity: 32%   Direction: 230°SW
Pressure: 30.54"   Gusts: NA
Location:  36.5°N, 77.01°W
Report Text: KFKN 221635Z AUTO 23008KT 10SM CLR 08/M08 A3054 RMK AO1
Loading
Personal Weather Stations






























Interactive Weather Map New forecast layout! Learn more

10-Day Weather Forecast

Advertisements
Track Severe Weather on mobile